createdAt,value
2019-04-30T00:00:15.827Z,49.67
2019-04-30T00:03:11.454Z,52.67
2019-04-30T00:05:40.290Z,54.53
2019-04-30T00:08:09.322Z,54.20
2019-04-30T00:10:41.107Z,60.43
2019-04-30T00:13:10.412Z,53.73
2019-04-30T00:15:40.887Z,55.43
2019-04-30T00:18:10.913Z,55.58
2019-04-30T00:20:39.995Z,57.00
2019-04-30T00:23:10.012Z,52.88
2019-04-30T00:25:39.081Z,54.77
2019-04-30T00:28:09.136Z,59.60
2019-04-30T00:30:39.295Z,55.43
2019-04-30T00:33:08.757Z,49.70
2019-04-30T00:35:37.756Z,55.80
2019-04-30T00:38:10.003Z,55.78
2019-04-30T00:40:40.020Z,51.77
2019-04-30T00:43:09.188Z,58.30
2019-04-30T00:45:40.062Z,57.45
2019-04-30T00:48:10.241Z,62.25
2019-04-30T00:50:39.209Z,59.85
2019-04-30T00:53:12.442Z,62.33
2019-04-30T00:55:46.786Z,56.70
2019-04-30T00:58:11.728Z,67.50
2019-04-30T01:00:59.794Z,50.90
2019-04-30T01:03:31.533Z,68.57
2019-04-30T01:06:00.591Z,72.08
2019-04-30T01:08:36.495Z,63.17
2019-04-30T01:11:09.379Z,64.95
2019-04-30T01:13:36.350Z,67.62
2019-04-30T01:16:06.417Z,74.67
2019-04-30T01:18:36.487Z,64.80
2019-04-30T01:21:10.207Z,95.42
2019-04-30T01:23:43.168Z,107.07
2019-04-30T01:26:08.822Z,77.35
2019-04-30T01:28:38.614Z,88.25
2019-04-30T01:31:09.049Z,71.37
2019-04-30T01:33:39.015Z,146.22
2019-04-30T01:36:09.577Z,68.42
2019-04-30T01:38:40.364Z,61.98
2019-04-30T01:41:10.595Z,58.28
2019-04-30T01:43:43.769Z,62.30
2019-04-30T01:46:13.994Z,65.92
2019-04-30T01:48:50.586Z,87.05
2019-04-30T01:51:21.730Z,58.95
2019-04-30T01:53:50.806Z,53.75
2019-04-30T01:56:30.539Z,47.98
2019-04-30T01:59:24.506Z,67.22
2019-04-30T02:01:53.856Z,84.90
2019-04-30T02:04:22.971Z,85.15
2019-04-30T02:06:51.981Z,82.05
2019-04-30T02:09:24.177Z,59.13
2019-04-30T02:11:57.092Z,70.32
2019-04-30T02:14:26.036Z,51.15
2019-04-30T02:16:55.049Z,54.05
2019-04-30T02:19:25.053Z,53.70
2019-04-30T02:21:54.105Z,49.42
2019-04-30T02:24:23.076Z,53.75
2019-04-30T02:26:51.945Z,61.23
2019-04-30T02:29:21.014Z,49.88
2019-04-30T02:31:51.050Z,46.83
2019-04-30T02:34:30.246Z,58.45
2019-04-30T02:37:09.794Z,51.18
2019-04-30T02:39:40.380Z,46.23
2019-04-30T02:42:13.123Z,45.52
2019-04-30T02:44:45.494Z,46.30
2019-04-30T02:47:22.421Z,44.35
2019-04-30T02:50:10.166Z,43.42
2019-04-30T02:52:29.294Z,41.98
2019-04-30T02:55:00.070Z,40.10
2019-04-30T02:57:30.060Z,42.62
2019-04-30T03:00:09.986Z,37.75
2019-04-30T03:02:39.418Z,37.50
2019-04-30T03:05:13.381Z,36.65
2019-04-30T03:07:40.966Z,38.45
2019-04-30T03:10:10.442Z,36.80
2019-04-30T03:12:40.420Z,30.35
2019-04-30T03:15:10.899Z,33.00
2019-04-30T03:18:00.634Z,34.27
2019-04-30T03:20:55.737Z,28.62
2019-04-30T03:23:25.689Z,34.05
2019-04-30T03:25:55.815Z,29.32
2019-04-30T03:28:24.727Z,31.80
2019-04-30T03:30:57.529Z,30.48
2019-04-30T03:33:24.233Z,27.85
2019-04-30T03:35:54.612Z,28.98
2019-04-30T03:38:24.149Z,30.68
2019-04-30T03:40:53.107Z,28.05
2019-04-30T03:43:22.060Z,27.10
2019-04-30T03:45:51.320Z,33.85
2019-04-30T03:48:20.329Z,27.70
2019-04-30T03:50:56.402Z,28.05
2019-04-30T03:53:20.378Z,28.85
2019-04-30T03:55:50.656Z,28.95
2019-04-30T03:58:21.182Z,29.98
2019-04-30T04:01:01.648Z,31.90
2019-04-30T04:03:31.876Z,30.65
2019-04-30T04:06:24.642Z,28.65
2019-04-30T04:09:00.269Z,25.40
2019-04-30T04:11:33.430Z,27.42
2019-04-30T04:14:02.393Z,28.05
2019-04-30T04:16:32.299Z,30.55
2019-04-30T04:19:02.921Z,26.33
2019-04-30T04:21:32.325Z,28.30
2019-04-30T04:24:01.317Z,29.55
2019-04-30T04:26:30.386Z,30.88
2019-04-30T04:28:59.605Z,36.23
2019-04-30T04:31:29.879Z,34.05
2019-04-30T04:34:00.107Z,33.98
2019-04-30T04:36:30.127Z,37.67
2019-04-30T04:39:00.127Z,43.73
2019-04-30T04:41:29.633Z,35.65
2019-04-30T04:44:00.138Z,39.88
2019-04-30T04:46:30.644Z,36.13
2019-04-30T04:48:59.974Z,37.45
2019-04-30T04:51:38.102Z,41.15
2019-04-30T04:54:00.097Z,39.05
2019-04-30T04:56:31.326Z,44.30
2019-04-30T04:59:00.384Z,44.35
2019-04-30T05:01:29.586Z,42.48
2019-04-30T05:03:59.873Z,40.28
2019-04-30T05:06:33.312Z,43.60
2019-04-30T05:09:02.564Z,45.15
2019-04-30T05:11:31.862Z,42.53
2019-04-30T05:14:01.376Z,40.65
2019-04-30T05:16:30.448Z,37.63
2019-04-30T05:19:01.210Z,41.20
2019-04-30T05:21:41.757Z,43.73
2019-04-30T05:24:01.414Z,42.53
2019-04-30T05:26:30.272Z,67.85
2019-04-30T05:28:59.514Z,104.45
2019-04-30T05:31:29.054Z,65.78
2019-04-30T05:33:58.769Z,51.50
2019-04-30T05:36:29.238Z,141.70
2019-04-30T05:38:58.735Z,97.10
2019-04-30T05:41:28.964Z,112.88
2019-04-30T05:43:59.123Z,82.17
2019-04-30T05:46:29.833Z,82.57
2019-04-30T05:48:59.435Z,74.77
2019-04-30T05:51:28.991Z,76.57
2019-04-30T05:53:59.266Z,71.97
2019-04-30T05:56:30.193Z,78.97
2019-04-30T05:58:59.416Z,77.75
2019-04-30T06:01:29.580Z,80.38
2019-04-30T06:03:59.500Z,86.25
2019-04-30T06:06:29.064Z,82.40
2019-04-30T06:09:13.045Z,76.65
2019-04-30T06:12:11.361Z,78.83
2019-04-30T06:14:59.048Z,85.25
2019-04-30T06:17:29.580Z,86.75
2019-04-30T06:19:59.065Z,82.82
2019-04-30T06:22:28.886Z,83.45
2019-04-30T06:24:59.492Z,77.70
2019-04-30T06:27:29.231Z,84.47
2019-04-30T06:29:58.550Z,78.40
2019-04-30T06:32:29.538Z,88.60
2019-04-30T06:34:59.307Z,75.65
2019-04-30T06:37:31.650Z,70.50
2019-04-30T06:40:01.354Z,67.22
2019-04-30T06:42:31.322Z,87.05
2019-04-30T06:45:00.536Z,72.37
2019-04-30T06:47:33.093Z,74.27
2019-04-30T06:50:01.528Z,72.95
2019-04-30T06:52:30.512Z,74.30
2019-04-30T06:54:59.695Z,72.65
2019-04-30T06:57:29.521Z,67.37
2019-04-30T06:59:59.583Z,67.12
2019-04-30T07:02:30.627Z,72.35
2019-04-30T07:04:59.452Z,74.82
2019-04-30T07:07:37.072Z,72.47
2019-04-30T07:10:16.674Z,76.35
2019-04-30T07:13:05.601Z,70.05
2019-04-30T07:15:34.628Z,67.32
2019-04-30T07:18:03.528Z,75.28
2019-04-30T07:20:34.131Z,67.35
2019-04-30T07:23:04.063Z,71.72
2019-04-30T07:25:33.193Z,62.48
2019-04-30T07:28:02.346Z,70.40
2019-04-30T07:30:31.373Z,71.37
2019-04-30T07:33:00.381Z,71.17
2019-04-30T07:35:29.396Z,73.87
2019-04-30T07:38:00.569Z,64.70
2019-04-30T07:40:29.339Z,64.37
2019-04-30T07:42:59.078Z,64.42
2019-04-30T07:45:31.884Z,68.07
2019-04-30T07:47:59.792Z,72.58
2019-04-30T07:50:31.341Z,74.42
2019-04-30T07:53:05.510Z,60.25
2019-04-30T07:55:30.049Z,71.62
2019-04-30T07:57:59.930Z,77.65
2019-04-30T08:00:31.120Z,60.85
2019-04-30T08:03:13.011Z,65.10
2019-04-30T08:05:44.085Z,64.15
2019-04-30T08:08:21.544Z,77.65
2019-04-30T08:10:46.706Z,63.90
2019-04-30T08:13:16.433Z,65.10
2019-04-30T08:15:45.836Z,69.77
2019-04-30T08:18:15.776Z,69.75
2019-04-30T08:20:44.717Z,68.92
2019-04-30T08:23:30.501Z,76.67
2019-04-30T08:25:44.378Z,69.55
2019-04-30T08:28:13.397Z,71.47
2019-04-30T08:30:42.329Z,78.15
2019-04-30T08:33:11.170Z,83.25
2019-04-30T08:35:40.160Z,67.92
2019-04-30T08:38:10.783Z,66.40
2019-04-30T08:40:53.102Z,72.47
2019-04-30T08:43:10.608Z,77.65
2019-04-30T08:45:39.613Z,65.67
2019-04-30T08:48:09.070Z,67.08
2019-04-30T08:50:39.311Z,67.60
2019-04-30T08:53:10.954Z,72.00
2019-04-30T08:55:39.442Z,63.58
2019-04-30T08:58:12.435Z,69.87
2019-04-30T09:00:39.167Z,60.08
2019-04-30T09:03:09.373Z,56.60
2019-04-30T09:05:55.883Z,62.65
2019-04-30T09:08:24.828Z,61.25
2019-04-30T09:10:53.758Z,61.10
2019-04-30T09:13:22.821Z,63.20
2019-04-30T09:15:51.837Z,62.33
2019-04-30T09:18:20.799Z,57.08
2019-04-30T09:20:49.868Z,55.45
2019-04-30T09:23:18.845Z,63.80
2019-04-30T09:25:49.695Z,56.68
2019-04-30T09:28:19.877Z,56.18
2019-04-30T09:30:48.961Z,63.42
2019-04-30T09:33:19.401Z,53.35
2019-04-30T09:35:49.559Z,59.18
2019-04-30T09:38:19.512Z,63.33
2019-04-30T09:40:50.556Z,48.85
2019-04-30T09:43:19.259Z,61.70
2019-04-30T09:45:49.722Z,55.98
2019-04-30T09:48:19.118Z,59.10
2019-04-30T09:50:49.714Z,60.48
2019-04-30T09:53:19.855Z,61.70
2019-04-30T09:55:49.684Z,63.80
2019-04-30T09:58:20.989Z,63.17
2019-04-30T10:00:50.347Z,64.97
2019-04-30T10:03:21.232Z,72.20
2019-04-30T10:05:50.712Z,68.05
2019-04-30T10:08:21.011Z,67.97
2019-04-30T10:11:01.590Z,58.50
2019-04-30T10:13:30.512Z,59.35
2019-04-30T10:16:09.755Z,66.00
2019-04-30T10:18:38.805Z,65.10
2019-04-30T10:21:09.088Z,59.30
2019-04-30T10:23:39.184Z,61.28
2019-04-30T10:26:08.376Z,60.43
2019-04-30T10:28:40.294Z,65.67
2019-04-30T10:31:12.337Z,61.50
2019-04-30T10:33:41.340Z,54.80
2019-04-30T10:36:11.640Z,64.00
2019-04-30T10:38:40.668Z,62.13
2019-04-30T10:41:09.696Z,58.97
2019-04-30T10:43:39.761Z,59.87
2019-04-30T10:46:09.902Z,61.83
2019-04-30T10:48:38.924Z,55.30
2019-04-30T10:51:09.030Z,68.62
2019-04-30T10:53:38.130Z,62.30
2019-04-30T10:56:09.586Z,62.70
2019-04-30T10:58:39.156Z,70.72
2019-04-30T11:01:09.584Z,62.87
2019-04-30T11:03:39.152Z,57.70
2019-04-30T11:06:09.132Z,57.23
2019-04-30T11:08:39.125Z,61.37
2019-04-30T11:11:08.169Z,61.97
2019-04-30T11:13:38.168Z,61.83
2019-04-30T11:16:14.668Z,61.50
2019-04-30T11:18:38.005Z,61.43
2019-04-30T11:21:09.756Z,51.37
2019-04-30T11:23:40.058Z,54.70
2019-04-30T11:26:09.817Z,58.50
2019-04-30T11:28:40.715Z,52.00
2019-04-30T11:31:32.294Z,56.60
2019-04-30T11:34:02.344Z,51.70
2019-04-30T11:36:31.405Z,49.60
2019-04-30T11:39:00.377Z,53.83
2019-04-30T11:41:32.880Z,53.10
2019-04-30T11:44:00.167Z,47.80
2019-04-30T11:46:59.590Z,54.53
2019-04-30T11:49:29.044Z,48.27
2019-04-30T11:51:58.085Z,50.00
2019-04-30T11:54:27.229Z,55.07
2019-04-30T11:56:58.895Z,48.27
2019-04-30T11:59:29.757Z,51.30
2019-04-30T12:02:00.510Z,52.60
2019-04-30T12:04:30.002Z,46.37
2019-04-30T12:09:57.279Z,41.47
2019-04-30T12:12:26.340Z,43.40
2019-04-30T12:14:55.217Z,37.00
2019-04-30T12:17:25.207Z,39.07
2019-04-30T12:19:54.174Z,36.53
2019-04-30T12:22:24.320Z,37.83
2019-04-30T12:25:02.674Z,43.60
2019-04-30T12:27:25.164Z,45.97
2019-04-30T12:29:54.136Z,40.80
2019-04-30T12:32:23.390Z,40.37
2019-04-30T12:34:55.509Z,34.60
2019-04-30T12:37:25.672Z,41.50
2019-04-30T12:40:01.601Z,37.30
2019-04-30T12:42:31.629Z,38.27
2019-04-30T12:45:01.795Z,34.13
2019-04-30T12:47:35.721Z,34.33
2019-04-30T12:50:12.213Z,33.40
2019-04-30T12:52:46.777Z,34.03
2019-04-30T12:55:34.844Z,44.30
2019-04-30T12:58:05.121Z,38.10
2019-04-30T13:00:34.500Z,34.50
2019-04-30T13:03:03.615Z,39.10
2019-04-30T13:05:35.690Z,33.57
2019-04-30T13:08:05.182Z,32.50
2019-04-30T13:10:37.004Z,35.13
2019-04-30T13:13:09.288Z,31.13
2019-04-30T13:15:38.653Z,38.03
2019-04-30T13:18:09.453Z,32.10
2019-04-30T13:20:39.634Z,32.57
2019-04-30T13:23:08.805Z,31.40
2019-04-30T13:25:49.013Z,28.33
2019-04-30T13:28:13.318Z,28.00
2019-04-30T13:30:42.280Z,31.63
2019-04-30T13:33:23.261Z,36.47
2019-04-30T13:35:52.186Z,29.40
2019-04-30T13:38:29.231Z,32.30
2019-04-30T13:41:08.847Z,26.90
2019-04-30T13:43:55.685Z,32.30
2019-04-30T13:46:25.683Z,31.30
2019-04-30T13:48:54.908Z,33.57
2019-04-30T13:51:23.833Z,30.10
2019-04-30T13:53:52.873Z,32.53
2019-04-30T13:56:21.865Z,29.67
2019-04-30T13:58:50.820Z,33.33
2019-04-30T14:01:21.451Z,29.50
2019-04-30T14:04:06.394Z,26.97
2019-04-30T14:06:38.820Z,29.90
2019-04-30T14:09:17.308Z,29.67
2019-04-30T14:11:46.253Z,34.50
2019-04-30T14:14:15.445Z,28.57
2019-04-30T14:16:44.556Z,27.47
2019-04-30T14:19:16.312Z,31.07
2019-04-30T14:21:45.257Z,33.03
2019-04-30T14:24:14.428Z,30.07
2019-04-30T14:26:43.322Z,28.27
2019-04-30T14:29:12.328Z,30.00
2019-04-30T14:31:41.263Z,27.20
2019-04-30T14:34:10.291Z,32.90
2019-04-30T14:36:39.296Z,32.97
2019-04-30T14:39:16.129Z,42.40
2019-04-30T14:41:40.460Z,33.43
2019-04-30T14:44:14.985Z,32.87
2019-04-30T14:46:59.337Z,32.00
2019-04-30T14:50:02.691Z,30.43
2019-04-30T14:52:32.562Z,32.37
2019-04-30T14:55:20.233Z,29.67
2019-04-30T14:58:06.700Z,28.40
2019-04-30T15:01:06.668Z,27.17
2019-04-30T15:03:35.818Z,29.20
2019-04-30T15:06:05.868Z,30.57
2019-04-30T15:08:39.414Z,29.17
2019-04-30T15:11:10.176Z,30.87
2019-04-30T15:13:42.288Z,31.50
2019-04-30T15:16:11.332Z,35.43
2019-04-30T15:18:40.280Z,30.17
2019-04-30T15:21:10.514Z,32.50
2019-04-30T15:24:32.991Z,31.07
2019-04-30T15:27:02.105Z,32.07
2019-04-30T15:29:32.452Z,37.07
2019-04-30T15:32:02.530Z,30.13
2019-04-30T15:34:31.638Z,29.23
2019-04-30T15:37:01.620Z,34.77
2019-04-30T15:39:34.233Z,30.30
2019-04-30T15:42:04.889Z,27.20
2019-04-30T15:44:40.174Z,26.80
2019-04-30T15:47:06.182Z,30.50
2019-04-30T15:49:35.273Z,27.47
2019-04-30T15:52:04.790Z,32.10
2019-04-30T15:54:33.784Z,35.00
2019-04-30T15:57:08.931Z,28.90
2019-04-30T15:59:43.339Z,26.30
2019-04-30T16:02:31.624Z,32.73
2019-04-30T16:05:18.804Z,31.23
2019-04-30T16:08:03.701Z,35.33
2019-04-30T16:10:53.890Z,27.50
2019-04-30T16:13:25.734Z,32.13
2019-04-30T16:15:56.630Z,35.53
2019-04-30T16:18:33.504Z,28.30
2019-04-30T16:21:04.267Z,29.77
2019-04-30T16:23:33.842Z,32.80
2019-04-30T16:26:06.358Z,28.57
2019-04-30T16:28:36.833Z,28.83
2019-04-30T16:31:06.069Z,27.63
2019-04-30T16:33:35.024Z,29.83
2019-04-30T16:36:04.056Z,29.43
2019-04-30T16:38:33.911Z,30.60
2019-04-30T16:41:02.930Z,27.30
2019-04-30T16:43:34.766Z,28.10
2019-04-30T16:46:03.898Z,31.00
2019-04-30T16:48:32.884Z,30.33
2019-04-30T16:51:09.887Z,26.93
2019-04-30T16:53:44.849Z,31.13
2019-04-30T16:56:13.888Z,26.97
2019-04-30T16:58:58.865Z,24.97
2019-04-30T17:01:28.215Z,25.13
2019-04-30T17:04:02.535Z,29.73
2019-04-30T17:06:33.553Z,27.87
2019-04-30T17:09:20.260Z,26.17
2019-04-30T17:12:13.040Z,29.67
2019-04-30T17:14:43.288Z,24.40
2019-04-30T17:17:13.518Z,25.13
2019-04-30T17:19:42.425Z,27.43
2019-04-30T17:22:11.458Z,27.57
2019-04-30T17:24:40.796Z,30.33
2019-04-30T17:27:18.755Z,24.60
2019-04-30T17:29:46.276Z,29.67
2019-04-30T17:32:16.324Z,26.10
2019-04-30T17:34:46.372Z,27.50
2019-04-30T17:37:15.384Z,25.10
2019-04-30T17:39:45.377Z,25.07
2019-04-30T17:42:14.445Z,26.97
2019-04-30T17:44:53.906Z,24.10
2019-04-30T17:47:14.532Z,27.00
2019-04-30T17:49:44.545Z,28.03
2019-04-30T17:52:13.755Z,28.13
2019-04-30T17:54:43.761Z,27.30
2019-04-30T17:57:13.829Z,26.43
2019-04-30T17:59:42.694Z,26.67
2019-04-30T18:02:13.573Z,24.80
2019-04-30T18:04:43.677Z,24.57
2019-04-30T18:07:14.691Z,30.53
2019-04-30T18:09:43.780Z,28.37
2019-04-30T18:12:12.801Z,29.65
2019-04-30T18:14:42.970Z,29.30
2019-04-30T18:17:12.120Z,24.63
2019-04-30T18:20:03.084Z,26.77
2019-04-30T18:22:59.488Z,28.53
2019-04-30T18:25:42.690Z,28.60
2019-04-30T18:28:11.765Z,31.50
2019-04-30T18:30:41.812Z,29.20
2019-04-30T18:33:10.862Z,27.57
2019-04-30T18:35:39.824Z,26.17
2019-04-30T18:38:09.756Z,28.87
2019-04-30T18:40:39.988Z,31.60
2019-04-30T18:43:09.191Z,27.27
2019-04-30T18:45:39.562Z,35.77
2019-04-30T18:48:09.881Z,34.20
2019-04-30T18:50:39.017Z,31.80
2019-04-30T18:53:14.862Z,35.17
2019-04-30T18:55:43.861Z,29.63
2019-04-30T18:58:12.907Z,31.85
2019-04-30T19:00:43.785Z,43.70
2019-04-30T19:03:12.835Z,32.80
2019-04-30T19:05:49.273Z,31.47
2019-04-30T19:08:24.597Z,31.23
2019-04-30T19:11:04.933Z,38.45
2019-04-30T19:13:51.496Z,34.33
2019-04-30T19:16:46.602Z,35.85
2019-04-30T19:19:29.535Z,46.55
2019-04-30T19:21:59.195Z,36.80
2019-04-30T19:24:28.366Z,41.92
2019-04-30T19:26:58.684Z,36.00
2019-04-30T19:29:27.528Z,37.63
2019-04-30T19:31:56.555Z,39.23
2019-04-30T19:34:28.837Z,35.70
2019-04-30T19:36:58.581Z,39.23
2019-04-30T19:39:29.236Z,36.03
2019-04-30T19:41:58.745Z,46.58
2019-04-30T19:44:30.052Z,34.78
2019-04-30T19:47:00.066Z,38.63
2019-04-30T19:49:30.023Z,38.77
2019-04-30T19:52:06.129Z,40.65
2019-04-30T19:54:29.633Z,40.10
2019-04-30T19:57:00.006Z,34.05
2019-04-30T19:59:29.456Z,38.43
2019-04-30T20:02:03.835Z,41.88
2019-04-30T20:04:36.229Z,43.05
2019-04-30T20:07:05.525Z,46.75
2019-04-30T20:09:37.021Z,38.78
2019-04-30T20:12:10.749Z,39.80
2019-04-30T20:14:40.457Z,40.43
2019-04-30T20:17:13.155Z,36.23
2019-04-30T20:19:42.436Z,40.28
2019-04-30T20:22:11.710Z,39.92
2019-04-30T20:24:41.066Z,38.33
2019-04-30T20:27:11.541Z,40.00
2019-04-30T20:33:13.217Z,35.92
2019-04-30T20:35:48.956Z,43.53
2019-04-30T20:38:43.694Z,36.60
2019-04-30T20:41:28.566Z,42.78
2019-04-30T20:44:02.693Z,41.08
2019-04-30T20:46:39.320Z,38.78
2019-04-30T20:49:19.831Z,43.63
2019-04-30T20:51:55.073Z,39.65
2019-04-30T20:54:21.363Z,38.95
2019-04-30T20:56:52.323Z,41.83
2019-04-30T20:59:23.191Z,39.42
2019-04-30T21:01:55.814Z,39.53
2019-04-30T21:04:26.173Z,40.80
2019-04-30T21:06:55.526Z,43.25
2019-04-30T21:09:24.747Z,37.98
2019-04-30T21:11:55.034Z,37.33
2019-04-30T21:14:24.177Z,40.83
2019-04-30T21:16:54.330Z,40.33
2019-04-30T21:19:24.529Z,36.70
2019-04-30T21:21:53.793Z,41.15
2019-04-30T21:24:23.021Z,39.05
2019-04-30T21:26:52.226Z,39.53
2019-04-30T21:29:23.111Z,44.30
2019-04-30T21:32:12.427Z,43.65
2019-04-30T21:34:48.394Z,46.73
2019-04-30T21:37:17.995Z,42.20
2019-04-30T21:39:50.173Z,42.88
2019-04-30T21:42:20.727Z,44.65
2019-04-30T21:44:53.716Z,46.15
2019-04-30T21:47:24.640Z,42.58
2019-04-30T21:49:54.577Z,52.88
2019-04-30T21:52:24.211Z,40.35
2019-04-30T21:54:54.209Z,40.00
2019-04-30T21:57:23.167Z,37.10
2019-04-30T21:59:52.180Z,49.53
2019-04-30T22:02:23.309Z,35.20
2019-04-30T22:04:53.420Z,36.53
2019-04-30T22:07:23.473Z,43.70
2019-04-30T22:09:52.529Z,40.88
2019-04-30T22:12:23.565Z,39.30
2019-04-30T22:14:52.677Z,43.02
2019-04-30T22:17:21.661Z,45.28
2019-04-30T22:19:51.776Z,46.73
2019-04-30T22:22:20.717Z,42.53
2019-04-30T22:24:49.777Z,41.73
2019-04-30T22:27:18.745Z,38.10
2019-04-30T22:29:47.866Z,43.28
2019-04-30T22:32:18.037Z,44.30
2019-04-30T22:34:48.182Z,37.95
2019-04-30T22:37:17.307Z,42.45
2019-04-30T22:39:52.568Z,41.08
2019-04-30T22:42:41.882Z,45.25
2019-04-30T22:45:24.521Z,40.52
2019-04-30T22:47:53.598Z,41.75
2019-04-30T22:50:23.055Z,43.65
2019-04-30T22:52:53.090Z,40.70
2019-04-30T22:55:22.266Z,41.77
2019-04-30T22:57:51.409Z,44.65
2019-04-30T23:00:36.761Z,38.13
2019-04-30T23:03:11.753Z,43.68
2019-04-30T23:05:42.443Z,43.05
2019-04-30T23:08:12.540Z,43.68
2019-04-30T23:10:42.603Z,41.08
2019-04-30T23:13:11.673Z,43.33
2019-04-30T23:15:40.809Z,39.85
2019-04-30T23:18:09.796Z,39.30
2019-04-30T23:20:38.793Z,40.25
2019-04-30T23:23:07.913Z,33.67
2019-04-30T23:25:36.893Z,34.18
2019-04-30T23:28:05.914Z,32.00
2019-04-30T23:30:39.059Z,39.10
2019-04-30T23:33:08.042Z,35.45
2019-04-30T23:35:38.156Z,38.73
2019-04-30T23:38:07.223Z,41.98
2019-04-30T23:40:55.379Z,33.78
2019-04-30T23:43:24.451Z,47.30
2019-04-30T23:45:54.493Z,38.80
2019-04-30T23:48:23.508Z,36.23
2019-04-30T23:50:54.603Z,36.13
2019-04-30T23:53:24.494Z,32.88
2019-04-30T23:55:55.617Z,37.98
2019-04-30T23:58:24.607Z,33.48
